Time;durP1;ratioP1;P1;durP2;ratioP2;P2;SDS_P1;SDS_P2;PMS_P1;PMS_P2;Temp;Humidity;BMP_temperature;BMP_pressure;BME280_temperature;BME280_humidity;BME280_pressure;Samples;Min_cycle;Max_cycle;Signal;HPM_P1;HPM_P2
2021/12/28 00:00:01;;;;;;;1.10;0.90;;;7.60;98.00;;;;;;5053337;28;20464;-67
2021/12/28 00:02:29;;;;;;;1.10;1.00;;;7.70;98.00;;;;;;5052908;28;20517;-68
2021/12/28 00:04:56;;;;;;;1.63;1.13;;;7.60;98.00;;;;;;5052896;28;20457;-68
2021/12/28 00:07:23;;;;;;;1.10;0.90;;;7.60;98.00;;;;;;5052968;28;20992;-68
2021/12/28 00:09:50;;;;;;;1.20;1.00;;;7.50;98.00;;;;;;5052913;28;20568;-68
2021/12/28 00:12:18;;;;;;;1.10;1.00;;;7.50;98.00;;;;;;5052195;28;20916;-68
2021/12/28 00:15:01;;;;;;;1.10;0.90;;;7.40;98.00;;;;;;5052939;28;20463;-68
2021/12/28 00:20:14;;;;;;;1.10;1.00;;;7.30;98.00;;;;;;5052813;28;20446;-68
2021/12/28 00:22:42;;;;;;;1.10;0.90;;;7.20;98.00;;;;;;5052446;28;20609;-68
2021/12/28 00:25:11;;;;;;;1.10;1.00;;;7.30;98.00;;;;;;5052631;28;20493;-68
2021/12/28 00:27:38;;;;;;;1.10;0.90;;;7.30;98.00;;;;;;5052503;28;20458;-68
2021/12/28 00:30:07;;;;;;;1.10;0.93;;;7.10;98.00;;;;;;5052660;28;20540;-68
2021/12/28 00:32:36;;;;;;;1.10;1.00;;;7.00;98.00;;;;;;5052356;28;20453;-68
2021/12/28 00:35:04;;;;;;;1.20;1.10;;;7.00;98.00;;;;;;5052699;28;20497;-68
2021/12/28 00:37:31;;;;;;;1.13;1.00;;;6.90;98.00;;;;;;5052451;28;20491;-68
2021/12/28 00:39:58;;;;;;;1.20;1.00;;;6.80;98.00;;;;;;5052288;28;20860;-68
2021/12/28 00:42:25;;;;;;;1.10;1.00;;;6.80;98.00;;;;;;5052115;28;20523;-68
2021/12/28 00:44:52;;;;;;;1.20;1.00;;;6.80;98.00;;;;;;5052394;28;20493;-68
2021/12/28 00:47:20;;;;;;;1.10;1.00;;;6.80;98.00;;;;;;5052295;28;20952;-68
2021/12/28 00:49:48;;;;;;;1.10;1.00;;;6.80;98.00;;;;;;5052252;28;20454;-67
2021/12/28 00:52:15;;;;;;;1.40;1.00;;;6.90;98.00;;;;;;5052154;28;20486;-68
2021/12/28 00:54:42;;;;;;;1.20;0.90;;;6.60;98.00;;;;;;5052335;28;20503;-68
2021/12/28 00:57:09;;;;;;;1.20;1.00;;;6.50;98.00;;;;;;5052184;28;20891;-67
2021/12/28 00:59:36;;;;;;;1.20;1.00;;;6.60;98.00;;;;;;5052214;28;20496;-68
2021/12/28 01:02:03;;;;;;;1.17;1.03;;;6.50;98.00;;;;;;5052106;28;20524;-68
2021/12/28 01:04:31;;;;;;;1.20;1.00;;;6.50;98.00;;;;;;5052122;28;20462;-68
2021/12/28 01:06:59;;;;;;;1.10;0.90;;;6.50;98.00;;;;;;5052011;28;20507;-68
2021/12/28 01:09:30;;;;;;;1.20;1.00;;;6.50;98.00;;;;;;5052070;28;20545;-68
2021/12/28 01:11:58;;;;;;;1.20;1.00;;;6.40;98.00;;;;;;5052153;28;20953;-68
2021/12/28 01:14:26;;;;;;;1.10;0.90;;;6.40;98.00;;;;;;5052012;28;21015;-68
2021/12/28 01:16:54;;;;;;;1.10;0.90;;;6.50;98.00;;;;;;5051739;28;21159;-68
2021/12/28 01:19:23;;;;;;;1.10;0.90;;;6.50;98.00;;;;;;5051777;28;20458;-68
2021/12/28 01:21:50;;;;;;;1.17;0.90;;;6.50;98.00;;;;;;5051507;28;20889;-67
2021/12/28 01:24:18;;;;;;;1.20;0.97;;;6.40;98.00;;;;;;5051768;28;20544;-68
2021/12/28 01:26:45;;;;;;;1.10;0.90;;;6.50;98.00;;;;;;5051614;28;20453;-68
2021/12/28 01:29:12;;;;;;;1.10;0.90;;;6.50;98.00;;;;;;5051480;28;20519;-68
2021/12/28 01:31:39;;;;;;;1.30;1.00;;;6.60;98.00;;;;;;5051769;28;20496;-68
2021/12/28 01:34:07;;;;;;;1.17;0.90;;;6.60;98.00;;;;;;5051579;28;20498;-68
2021/12/28 01:36:34;;;;;;;4.47;2.30;;;6.50;98.00;;;;;;5051413;28;20483;-68
2021/12/28 01:39:04;;;;;;;1.10;0.97;;;6.60;98.00;;;;;;5051450;28;20527;-68
2021/12/28 01:41:32;;;;;;;1.40;1.30;;;6.70;98.00;;;;;;5051370;28;20481;-68
2021/12/28 01:44:04;;;;;;;1.10;1.00;;;6.80;98.00;;;;;;5051769;28;20543;-68
2021/12/28 01:46:32;;;;;;;1.10;0.90;;;6.70;98.00;;;;;;5051495;28;20464;-68
2021/12/28 01:48:59;;;;;;;1.10;0.90;;;6.80;98.00;;;;;;5051478;28;20538;-68
2021/12/28 01:51:27;;;;;;;1.37;1.10;;;6.80;98.00;;;;;;5051547;28;20460;-68
2021/12/28 01:53:57;;;;;;;1.10;1.00;;;6.80;98.00;;;;;;5051646;28;20458;-67
2021/12/28 01:56:27;;;;;;;1.20;1.00;;;6.90;98.00;;;;;;5051418;28;20457;-68
2021/12/28 01:58:56;;;;;;;1.20;1.00;;;6.70;98.00;;;;;;5051295;28;20510;-66
2021/12/28 02:01:24;;;;;;;1.10;0.90;;;6.50;98.00;;;;;;5051014;28;20495;-66
2021/12/28 02:03:51;;;;;;;1.10;1.00;;;6.40;98.00;;;;;;5051333;28;20491;-66
2021/12/28 02:06:20;;;;;;;1.10;1.00;;;6.40;98.00;;;;;;5051074;28;20491;-66
2021/12/28 02:08:47;;;;;;;1.10;1.00;;;6.30;98.00;;;;;;5051410;28;20561;-66
2021/12/28 02:11:14;;;;;;;1.30;1.13;;;6.30;98.00;;;;;;5051454;28;20518;-66
2021/12/28 02:13:42;;;;;;;1.20;1.10;;;6.30;98.00;;;;;;5051301;28;20542;-66
2021/12/28 02:16:13;;;;;;;1.10;0.90;;;6.30;98.00;;;;;;5051228;28;20501;-66
2021/12/28 02:18:40;;;;;;;1.10;0.90;;;6.30;98.00;;;;;;5051420;28;20489;-65
2021/12/28 02:21:09;;;;;;;1.93;1.10;;;6.20;98.00;;;;;;5051239;28;20458;-66
2021/12/28 02:23:36;;;;;;;1.10;0.97;;;6.20;98.00;;;;;;5051144;28;20519;-66
2021/12/28 02:26:05;;;;;;;1.10;0.93;;;6.10;98.00;;;;;;5051267;28;20818;-66
2021/12/28 02:28:32;;;;;;;1.50;1.30;;;6.10;98.00;;;;;;5051140;28;20500;-65
2021/12/28 02:31:00;;;;;;;2.23;2.03;;;6.20;98.00;;;;;;5051286;28;20456;-66
2021/12/28 02:33:28;;;;;;;1.40;1.10;;;6.00;98.00;;;;;;5051108;28;20527;-65
2021/12/28 02:35:57;;;;;;;1.10;1.00;;;5.90;98.00;;;;;;5053268;28;20511;-66
2021/12/28 02:38:25;;;;;;;1.10;1.00;;;6.00;98.00;;;;;;5054719;28;20554;-65
2021/12/28 02:40:52;;;;;;;1.77;1.67;;;5.90;98.00;;;;;;5054520;28;20541;-66
2021/12/28 02:43:20;;;;;;;2.00;1.53;;;6.00;98.00;;;;;;5054834;28;20523;-66
2021/12/28 02:45:53;;;;;;;1.20;0.90;;;6.00;98.00;;;;;;5054275;28;20498;-66
2021/12/28 02:48:22;;;;;;;1.20;1.00;;;6.10;98.00;;;;;;5054672;28;20949;-65
2021/12/28 02:50:52;;;;;;;1.17;1.00;;;6.10;98.00;;;;;;5054586;28;20878;-66
2021/12/28 02:53:20;;;;;;;1.10;1.00;;;6.10;98.00;;;;;;5054326;28;20535;-66
2021/12/28 02:55:49;;;;;;;1.10;1.00;;;6.00;98.00;;;;;;5054098;28;20450;-66
2021/12/28 02:58:29;;;;;;;1.20;0.90;;;6.10;98.00;;;;;;5054502;28;20464;-66
2021/12/28 03:01:01;;;;;;;1.10;1.00;;;6.30;98.00;;;;;;5054253;28;21018;-65
2021/12/28 03:03:30;;;;;;;1.10;1.00;;;6.20;98.00;;;;;;5053028;28;20566;-66
2021/12/28 03:05:59;;;;;;;1.10;1.10;;;6.20;98.00;;;;;;5054058;28;20872;-66
2021/12/28 03:08:29;;;;;;;1.20;1.10;;;6.10;98.00;;;;;;5054311;28;20519;-66
2021/12/28 03:10:58;;;;;;;1.10;0.90;;;6.10;98.00;;;;;;5053954;28;20465;-66
2021/12/28 03:13:28;;;;;;;1.20;1.00;;;6.10;98.00;;;;;;5053986;28;20482;-66
2021/12/28 03:15:55;;;;;;;1.20;1.07;;;6.10;98.00;;;;;;5053923;28;20464;-65
2021/12/28 03:18:22;;;;;;;1.10;1.00;;;6.20;98.00;;;;;;5053993;28;20492;-67
2021/12/28 03:20:50;;;;;;;1.40;1.20;;;6.30;98.00;;;;;;5053704;28;21016;-68
2021/12/28 03:23:26;;;;;;;1.10;0.90;;;6.40;98.00;;;;;;5053949;28;20900;-67
2021/12/28 03:25:54;;;;;;;1.20;0.90;;;6.40;98.00;;;;;;5053643;28;20468;-67
2021/12/28 03:28:25;;;;;;;1.50;1.20;;;6.50;98.00;;;;;;5053856;28;20500;-67
2021/12/28 03:30:54;;;;;;;1.10;1.00;;;6.50;98.00;;;;;;5052093;28;20474;-68
2021/12/28 03:33:22;;;;;;;1.10;0.90;;;6.40;98.00;;;;;;5053846;28;20510;-68
2021/12/28 03:35:49;;;;;;;1.10;1.00;;;6.30;98.00;;;;;;5053697;28;20469;-67
2021/12/28 03:38:16;;;;;;;1.20;1.10;;;6.20;98.00;;;;;;5053570;28;20488;-68
2021/12/28 03:40:44;;;;;;;1.10;0.90;;;6.10;98.00;;;;;;5053543;28;21149;-68
2021/12/28 03:43:11;;;;;;;1.10;1.00;;;6.10;98.00;;;;;;5051918;28;20882;-67
2021/12/28 03:45:39;;;;;;;1.20;0.90;;;6.10;98.00;;;;;;5052856;28;20930;-68
2021/12/28 03:48:06;;;;;;;1.10;1.00;;;6.10;98.00;;;;;;5051805;28;21283;-67
2021/12/28 03:50:34;;;;;;;1.73;1.27;;;5.90;98.00;;;;;;5052542;28;20514;-68
2021/12/28 03:53:02;;;;;;;1.10;0.90;;;5.90;98.00;;;;;;5052913;28;20481;-68
2021/12/28 03:55:36;;;;;;;2.23;1.83;;;6.00;98.00;;;;;;5053538;28;20450;-68
2021/12/28 03:58:04;;;;;;;1.10;0.93;;;6.00;98.00;;;;;;5053685;28;20787;-68
2021/12/28 04:00:34;;;;;;;1.10;0.90;;;6.10;98.00;;;;;;5053099;28;20547;-68
2021/12/28 04:03:03;;;;;;;1.60;1.30;;;6.10;98.00;;;;;;5053492;28;20574;-68
2021/12/28 04:05:30;;;;;;;1.73;1.20;;;6.00;98.00;;;;;;5053100;28;20452;-68
2021/12/28 04:07:57;;;;;;;1.10;1.00;;;6.00;98.00;;;;;;5053453;28;20492;-67
2021/12/28 04:10:30;;;;;;;1.20;1.00;;;6.00;98.00;;;;;;5052966;28;20492;-67
2021/12/28 04:12:57;;;;;;;1.10;0.90;;;6.00;98.00;;;;;;5052893;28;20459;-67
2021/12/28 04:15:25;;;;;;;1.30;1.20;;;6.10;98.00;;;;;;5051870;28;20540;-67
2021/12/28 04:17:52;;;;;;;1.10;1.07;;;6.20;98.00;;;;;;5052542;28;20484;-67
2021/12/28 04:20:22;;;;;;;1.10;1.00;;;6.10;98.00;;;;;;5052673;28;20540;-68
2021/12/28 04:22:51;;;;;;;1.10;0.93;;;6.20;98.00;;;;;;5052564;28;20572;-67
2021/12/28 04:25:19;;;;;;;3.83;1.30;;;6.20;98.00;;;;;;5052620;28;20488;-67
2021/12/28 04:27:47;;;;;;;1.77;1.00;;;6.20;98.00;;;;;;5052391;28;20495;-67
2021/12/28 04:30:23;;;;;;;1.10;0.97;;;6.20;98.00;;;;;;5052538;28;20503;-68
2021/12/28 04:32:50;;;;;;;3.33;1.10;;;6.10;98.00;;;;;;5051264;28;20544;-68
2021/12/28 04:35:17;;;;;;;1.10;1.10;;;6.10;98.00;;;;;;5052441;28;20541;-68
2021/12/28 04:37:46;;;;;;;1.10;1.00;;;6.00;98.00;;;;;;5052296;28;20480;-68
2021/12/28 04:40:14;;;;;;;1.73;1.00;;;6.00;98.00;;;;;;5052092;28;20499;-68
2021/12/28 04:42:42;;;;;;;1.10;0.90;;;6.00;98.00;;;;;;5052252;28;20528;-67
2021/12/28 04:45:10;;;;;;;1.10;0.90;;;6.10;98.00;;;;;;5052327;28;20534;-68
2021/12/28 04:47:38;;;;;;;1.10;0.90;;;6.20;98.00;;;;;;5052406;28;20457;-67
2021/12/28 04:50:07;;;;;;;1.20;1.00;;;6.20;98.00;;;;;;5052389;28;20492;-67
2021/12/28 04:52:37;;;;;;;1.10;1.00;;;6.20;98.00;;;;;;5052532;28;20940;-67
2021/12/28 04:55:09;;;;;;;1.10;0.90;;;6.20;98.00;;;;;;5052390;28;20456;-67
2021/12/28 04:57:36;;;;;;;1.50;1.10;;;6.20;98.00;;;;;;5051962;28;20468;-68
2021/12/28 05:00:06;;;;;;;1.17;1.07;;;6.30;98.00;;;;;;5052336;28;20493;-68
2021/12/28 05:02:33;;;;;;;1.20;1.20;;;6.20;98.00;;;;;;5052033;28;20571;-67
2021/12/28 05:05:00;;;;;;;1.50;1.20;;;6.10;98.00;;;;;;5052197;28;20496;-68
2021/12/28 05:07:28;;;;;;;1.10;1.00;;;6.20;98.00;;;;;;5051981;28;21022;-68
2021/12/28 05:09:57;;;;;;;1.50;1.20;;;6.30;98.00;;;;;;5052118;28;20490;-67
2021/12/28 05:12:26;;;;;;;1.73;1.60;;;6.20;98.00;;;;;;5050947;28;20920;-68
2021/12/28 05:14:53;;;;;;;1.10;0.90;;;6.30;98.00;;;;;;5051987;28;20507;-68
2021/12/28 05:17:20;;;;;;;1.43;1.33;;;6.20;98.00;;;;;;5052195;28;20491;-68
2021/12/28 05:19:47;;;;;;;1.10;1.00;;;6.30;98.00;;;;;;5052061;28;20552;-68
2021/12/28 05:22:14;;;;;;;1.10;1.10;;;6.40;98.00;;;;;;5051792;28;20502;-67
2021/12/28 05:24:41;;;;;;;1.40;1.23;;;6.30;98.00;;;;;;5051984;28;20523;-68
2021/12/28 05:27:09;;;;;;;1.10;0.90;;;6.30;98.00;;;;;;5051823;28;20520;-68
2021/12/28 05:29:38;;;;;;;1.60;1.30;;;6.40;98.00;;;;;;5051737;28;20492;-68
2021/12/28 05:32:05;;;;;;;1.10;1.00;;;6.40;98.00;;;;;;5051800;28;20547;-68
2021/12/28 05:34:35;;;;;;;1.10;1.00;;;6.40;98.00;;;;;;5051524;28;20485;-68
2021/12/28 05:37:03;;;;;;;1.10;1.00;;;6.30;98.00;;;;;;5050542;28;20605;-68
2021/12/28 05:39:30;;;;;;;1.70;1.10;;;6.40;98.00;;;;;;5051591;28;21013;-67
2021/12/28 05:41:57;;;;;;;1.37;1.10;;;6.40;98.00;;;;;;5051405;28;20497;-68
2021/12/28 05:44:26;;;;;;;1.10;1.00;;;6.50;98.00;;;;;;5051492;28;20575;-68
2021/12/28 05:46:55;;;;;;;1.10;1.10;;;6.60;98.00;;;;;;5051471;28;20450;-68
2021/12/28 05:49:22;;;;;;;1.10;0.97;;;6.70;98.00;;;;;;5051024;28;20841;-67
2021/12/28 05:51:49;;;;;;;1.10;0.90;;;6.70;98.00;;;;;;5050909;28;20538;-67
2021/12/28 05:54:17;;;;;;;1.10;1.00;;;6.70;98.00;;;;;;5051157;28;20486;-67
2021/12/28 05:56:44;;;;;;;1.10;1.00;;;6.70;98.00;;;;;;5051385;28;20519;-68
2021/12/28 05:59:12;;;;;;;1.20;1.00;;;6.70;98.00;;;;;;5051548;28;20863;-68
2021/12/28 06:01:40;;;;;;;1.30;1.00;;;6.70;98.00;;;;;;5051270;28;20832;-68
2021/12/28 06:04:08;;;;;;;1.10;1.00;;;6.70;98.00;;;;;;5050051;28;20494;-68
2021/12/28 06:06:37;;;;;;;1.10;1.00;;;6.70;98.00;;;;;;5051471;28;20485;-68
2021/12/28 06:09:05;;;;;;;1.10;1.00;;;6.80;98.00;;;;;;5051143;28;20479;-68
2021/12/28 06:11:33;;;;;;;1.47;1.40;;;6.80;98.00;;;;;;5053103;28;20556;-68
2021/12/28 06:14:00;;;;;;;1.10;1.00;;;6.80;98.00;;;;;;5055384;28;20547;-68
2021/12/28 06:16:27;;;;;;;1.10;0.90;;;6.80;98.00;;;;;;5055127;28;21186;-68
2021/12/28 06:18:54;;;;;;;1.10;0.90;;;6.90;98.00;;;;;;5055096;28;20492;-68
2021/12/28 06:21:22;;;;;;;1.10;0.90;;;6.90;98.00;;;;;;5055066;28;20889;-67
2021/12/28 06:23:50;;;;;;;1.10;0.90;;;7.00;98.00;;;;;;5054986;28;20992;-68
2021/12/28 06:26:17;;;;;;;1.10;1.00;;;7.10;98.00;;;;;;5054908;28;20986;-68
2021/12/28 06:28:49;;;;;;;1.20;1.00;;;7.20;98.00;;;;;;5054804;28;20540;-67
2021/12/28 06:31:16;;;;;;;1.10;0.97;;;7.20;98.00;;;;;;5054796;28;20454;-68
2021/12/28 06:33:44;;;;;;;1.10;0.97;;;7.30;98.00;;;;;;5055205;28;20533;-68
2021/12/28 06:36:11;;;;;;;1.10;1.00;;;7.50;98.00;;;;;;5037049;28;20548;-68
2021/12/28 06:38:40;;;;;;;1.10;1.07;;;7.60;98.00;;;;;;5054702;28;20499;-68
2021/12/28 06:41:08;;;;;;;1.10;0.97;;;7.60;98.00;;;;;;5054820;28;20482;-68
2021/12/28 06:43:36;;;;;;;1.10;1.10;;;7.50;98.00;;;;;;5054820;28;20520;-68
2021/12/28 06:46:03;;;;;;;1.10;1.00;;;7.40;98.00;;;;;;5054854;28;20504;-68
2021/12/28 06:48:31;;;;;;;1.10;1.00;;;7.30;98.00;;;;;;5054980;28;20504;-68
2021/12/28 06:50:58;;;;;;;1.20;1.10;;;7.20;98.00;;;;;;5054857;28;20495;-68
2021/12/28 06:53:25;;;;;;;1.10;1.00;;;7.20;98.00;;;;;;5054347;28;20453;-68
2021/12/28 06:55:54;;;;;;;1.10;0.90;;;7.30;98.00;;;;;;5054629;28;20460;-68
2021/12/28 06:58:21;;;;;;;1.10;0.90;;;7.20;98.00;;;;;;5053735;28;20464;-68
2021/12/28 07:00:48;;;;;;;1.10;1.00;;;7.30;98.00;;;;;;5054207;28;20489;-67
2021/12/28 07:03:15;;;;;;;1.10;0.90;;;7.40;98.00;;;;;;5054322;28;21026;-68
2021/12/28 07:05:42;;;;;;;1.10;0.90;;;7.50;98.00;;;;;;5053909;28;20460;-68
2021/12/28 07:08:09;;;;;;;1.10;1.00;;;7.60;98.00;;;;;;5053808;28;20460;-68
2021/12/28 07:10:36;;;;;;;1.10;0.90;;;7.70;98.00;;;;;;5052865;28;20895;-68
2021/12/28 07:13:05;;;;;;;1.10;0.90;;;7.80;98.00;;;;;;5054196;28;20481;-68
2021/12/28 07:15:32;;;;;;;1.10;1.00;;;7.90;98.00;;;;;;5054033;28;20455;-68
2021/12/28 07:17:59;;;;;;;1.10;0.90;;;8.00;98.00;;;;;;5053790;28;20485;-68
2021/12/28 07:20:29;;;;;;;1.10;1.00;;;8.10;98.00;;;;;;5054025;28;20504;-68
2021/12/28 07:22:56;;;;;;;1.10;0.90;;;8.10;98.00;;;;;;5053681;28;20532;-68
2021/12/28 07:25:24;;;;;;;1.20;1.00;;;8.20;98.00;;;;;;5053777;28;20462;-67
2021/12/28 07:27:52;;;;;;;1.10;1.00;;;8.20;98.00;;;;;;5053816;28;20941;-67
2021/12/28 07:30:21;;;;;;;1.10;0.97;;;8.30;98.00;;;;;;5053763;28;20496;-67
2021/12/28 07:32:49;;;;;;;1.10;1.00;;;8.30;98.00;;;;;;5053602;28;20467;-67
2021/12/28 07:35:16;;;;;;;1.10;1.00;;;8.40;98.00;;;;;;5053738;28;20450;-67
2021/12/28 07:37:43;;;;;;;1.10;0.90;;;8.50;98.00;;;;;;5053514;28;20956;-67
2021/12/28 07:40:12;;;;;;;1.10;1.00;;;8.40;98.00;;;;;;5053439;28;20455;-67
2021/12/28 07:42:39;;;;;;;1.10;0.90;;;8.50;98.00;;;;;;5053385;28;20947;-67
2021/12/28 07:45:10;;;;;;;1.10;1.00;;;8.50;98.00;;;;;;5053461;28;20495;-67
2021/12/28 07:47:38;;;;;;;2.00;1.20;;;8.50;98.00;;;;;;5053287;28;20547;-67
2021/12/28 07:50:07;;;;;;;1.10;1.00;;;8.60;98.00;;;;;;5053447;28;20530;-67
2021/12/28 07:52:35;;;;;;;1.20;1.00;;;8.70;98.00;;;;;;5052878;28;20501;-67
2021/12/28 07:55:03;;;;;;;1.20;1.10;;;8.70;98.00;;;;;;5053246;28;20532;-67
2021/12/28 07:57:31;;;;;;;1.10;0.90;;;8.80;98.00;;;;;;5052071;28;20800;-67
2021/12/28 08:00:00;;;;;;;1.10;1.00;;;8.70;98.00;;;;;;5053652;28;20589;-67
2021/12/28 08:02:28;;;;;;;1.10;0.90;;;8.80;98.00;;;;;;5053307;28;20535;-67
2021/12/28 08:04:56;;;;;;;1.17;1.00;;;8.80;98.00;;;;;;5053294;28;20484;-67
2021/12/28 08:07:23;;;;;;;1.10;1.00;;;8.80;98.00;;;;;;5053275;28;20510;-67
2021/12/28 08:09:50;;;;;;;1.10;1.00;;;8.80;98.00;;;;;;5053365;28;20491;-67
2021/12/28 08:12:17;;;;;;;1.10;1.10;;;8.80;98.00;;;;;;5053098;28;20496;-67
2021/12/28 08:14:44;;;;;;;1.10;1.00;;;8.90;98.00;;;;;;5052254;28;20810;-67
2021/12/28 08:17:12;;;;;;;1.10;0.90;;;9.00;98.00;;;;;;5053095;28;20547;-68
2021/12/28 08:19:39;;;;;;;1.10;1.00;;;8.90;98.00;;;;;;5051482;28;20464;-67
2021/12/28 08:22:08;;;;;;;1.10;1.00;;;9.10;98.00;;;;;;5052929;28;20518;-68
2021/12/28 08:24:35;;;;;;;1.10;1.00;;;9.10;98.00;;;;;;5052260;28;20573;-67
2021/12/28 08:27:02;;;;;;;1.10;0.93;;;9.10;98.00;;;;;;5052767;28;20499;-67
2021/12/28 08:29:29;;;;;;;1.10;1.00;;;9.10;98.00;;;;;;5052815;28;20956;-67
2021/12/28 08:31:56;;;;;;;1.10;0.90;;;9.00;98.00;;;;;;5052482;28;20513;-67
2021/12/28 08:34:23;;;;;;;1.10;1.00;;;9.10;98.00;;;;;;5051986;28;20487;-67
2021/12/28 08:36:50;;;;;;;1.70;1.27;;;9.10;98.00;;;;;;5051170;28;20545;-67
2021/12/28 08:39:19;;;;;;;1.17;1.07;;;9.10;98.00;;;;;;5052345;28;20911;-67
2021/12/28 08:41:46;;;;;;;1.20;1.20;;;9.00;98.00;;;;;;5052174;28;20482;-67
2021/12/28 08:44:13;;;;;;;1.10;0.90;;;9.10;98.00;;;;;;5052405;28;20580;-67
2021/12/28 08:46:42;;;;;;;1.10;1.00;;;9.00;98.00;;;;;;5052331;28;20492;-67
2021/12/28 08:49:09;;;;;;;1.10;1.00;;;8.90;98.00;;;;;;5052144;28;20462;-67
2021/12/28 08:51:36;;;;;;;1.10;1.03;;;8.90;98.00;;;;;;5052086;28;20775;-67
2021/12/28 08:54:03;;;;;;;1.10;0.90;;;8.90;98.00;;;;;;5052164;28;20533;-67
2021/12/28 08:56:31;;;;;;;1.10;0.90;;;9.00;98.00;;;;;;5051975;28;20496;-67
2021/12/28 08:58:58;;;;;;;1.10;0.90;;;9.00;98.00;;;;;;5052264;28;20492;-67
2021/12/28 09:01:25;;;;;;;1.10;0.90;;;9.00;98.00;;;;;;5052048;28;20495;-67
2021/12/28 09:03:53;;;;;;;1.10;1.00;;;9.10;98.00;;;;;;5051651;28;20524;-67
2021/12/28 09:06:20;;;;;;;1.10;1.00;;;9.10;98.00;;;;;;5051151;28;20493;-67
2021/12/28 09:08:47;;;;;;;1.10;0.90;;;9.30;98.00;;;;;;5051201;28;21315;-67
2021/12/28 09:11:15;;;;;;;1.10;1.00;;;9.30;98.00;;;;;;5051306;28;20458;-68
2021/12/28 09:13:43;;;;;;;1.10;0.93;;;9.40;98.00;;;;;;5051980;28;20542;-68
2021/12/28 09:16:10;;;;;;;1.10;1.00;;;9.60;98.00;;;;;;5051858;28;20506;-68
2021/12/28 09:18:37;;;;;;;1.10;1.00;;;9.60;98.00;;;;;;5051762;28;20515;-68
2021/12/28 09:21:08;;;;;;;1.10;1.00;;;9.70;98.00;;;;;;5051932;28;20462;-68
2021/12/28 09:23:37;;;;;;;1.10;0.90;;;9.80;98.00;;;;;;5051694;28;20527;-68
2021/12/28 09:26:05;;;;;;;1.10;0.90;;;9.80;98.00;;;;;;5051910;28;20533;-69
2021/12/28 09:28:32;;;;;;;1.10;1.00;;;9.80;98.00;;;;;;5050519;28;20467;-69
2021/12/28 09:31:01;;;;;;;1.10;0.90;;;9.80;98.00;;;;;;5051945;28;20956;-69
2021/12/28 09:33:29;;;;;;;1.10;1.00;;;9.90;98.00;;;;;;5050456;28;20543;-69
2021/12/28 09:36:00;;;;;;;1.10;0.90;;;9.90;98.00;;;;;;5051923;28;20489;-68
2021/12/28 09:38:27;;;;;;;1.10;1.00;;;9.90;98.00;;;;;;5051520;28;20488;-68
2021/12/28 09:40:54;;;;;;;1.10;0.93;;;9.90;98.00;;;;;;5041266;28;20551;-68
2021/12/28 09:43:21;;;;;;;1.10;1.00;;;10.00;98.00;;;;;;5047582;28;20482;-69
2021/12/28 09:45:48;;;;;;;1.10;0.90;;;10.00;98.00;;;;;;5041478;28;20607;-69
2021/12/28 09:48:17;;;;;;;1.10;0.90;;;9.90;98.00;;;;;;5051337;28;20538;-70
2021/12/28 09:50:50;;;;;;;1.10;1.00;;;10.00;98.00;;;;;;5044210;28;20488;-69
2021/12/28 09:53:17;;;;;;;1.10;0.90;;;10.00;98.00;;;;;;5041708;28;20546;-67
2021/12/28 09:55:45;;;;;;;1.10;0.97;;;10.10;98.00;;;;;;5034785;28;20466;-68
2021/12/28 09:58:12;;;;;;;1.10;0.90;;;10.20;98.00;;;;;;5050127;28;20453;-67
2021/12/28 10:00:40;;;;;;;1.10;1.00;;;10.20;98.00;;;;;;5035476;28;20498;-68
2021/12/28 10:03:07;;;;;;;1.20;1.00;;;10.30;98.00;;;;;;5043385;28;20485;-68
2021/12/28 10:05:36;;;;;;;1.10;0.90;;;10.30;98.00;;;;;;5034238;28;20532;-69
2021/12/28 10:08:06;;;;;;;1.10;0.93;;;10.40;98.00;;;;;;5041762;28;20943;-66
2021/12/28 10:10:36;;;;;;;1.10;0.90;;;10.30;98.00;;;;;;5042624;28;20499;-67
2021/12/28 10:13:06;;;;;;;1.10;1.00;;;10.40;98.00;;;;;;5041789;28;20484;-67
2021/12/28 10:15:36;;;;;;;1.10;1.00;;;10.40;98.00;;;;;;5042741;28;20823;-66
2021/12/28 10:18:07;;;;;;;1.10;0.97;;;10.40;98.00;;;;;;5042898;28;20885;-68
2021/12/28 10:20:39;;;;;;;1.60;1.57;;;10.50;98.00;;;;;;5051404;28;20461;-68
2021/12/28 10:23:10;;;;;;;1.20;1.00;;;10.50;98.00;;;;;;5034057;28;20494;-69
2021/12/28 10:25:39;;;;;;;1.17;1.00;;;10.60;98.00;;;;;;5042607;28;20910;-68
2021/12/28 10:28:08;;;;;;;1.10;0.93;;;10.60;98.00;;;;;;5034220;28;20489;-68
2021/12/28 10:30:38;;;;;;;1.20;0.90;;;10.60;98.00;;;;;;5051296;28;20561;-68
2021/12/28 10:33:11;;;;;;;1.10;0.90;;;10.70;98.00;;;;;;5034234;28;20649;-69
2021/12/28 10:35:42;;;;;;;1.17;1.03;;;10.80;98.00;;;;;;5031655;28;20469;-68
2021/12/28 10:38:11;;;;;;;1.17;1.00;;;10.80;98.00;;;;;;5036383;28;20488;-68
2021/12/28 10:40:40;;;;;;;1.10;0.93;;;10.90;98.00;;;;;;5041443;28;20559;-67
2021/12/28 10:43:08;;;;;;;1.20;1.10;;;11.00;98.00;;;;;;5049811;28;20936;-69
2021/12/28 10:45:41;;;;;;;1.13;0.90;;;11.10;98.00;;;;;;5041300;28;21139;-68
2021/12/28 10:48:11;;;;;;;1.20;1.00;;;11.10;98.00;;;;;;5044969;28;20482;-68
2021/12/28 10:50:43;;;;;;;1.13;0.90;;;11.30;98.00;;;;;;5038940;28;20547;-68
2021/12/28 10:53:20;;;;;;;1.20;0.90;;;11.30;98.00;;;;;;5044498;28;21305;-68
2021/12/28 10:55:51;;;;;;;1.10;0.90;;;11.30;98.00;;;;;;5033556;28;20458;-67
2021/12/28 10:58:24;;;;;;;1.20;1.00;;;11.40;98.00;;;;;;5039537;28;20487;-69
2021/12/28 11:00:52;;;;;;;1.20;1.07;;;11.50;98.00;;;;;;5050822;28;20547;-69
2021/12/28 11:03:30;;;;;;;1.20;1.00;;;11.60;98.00;;;;;;5051032;28;20458;-69
2021/12/28 11:06:00;;;;;;;1.20;1.00;;;11.60;98.00;;;;;;5050486;28;20485;-69
2021/12/28 11:08:29;;;;;;;1.20;1.00;;;11.80;98.00;;;;;;5041768;28;20491;-69
2021/12/28 11:11:00;;;;;;;1.20;1.00;;;11.80;98.00;;;;;;5041922;28;20497;-70
2021/12/28 11:13:29;;;;;;;1.20;1.00;;;11.90;98.00;;;;;;5041122;28;20463;-70
2021/12/28 11:15:56;;;;;;;1.20;1.00;;;12.00;98.00;;;;;;5049870;28;21010;-70
2021/12/28 11:18:29;;;;;;;1.20;1.00;;;12.00;98.00;;;;;;5032776;28;20455;-69
2021/12/28 11:21:01;;;;;;;1.30;1.10;;;12.00;98.00;;;;;;5025031;28;20470;-70
2021/12/28 11:23:30;;;;;;;1.43;1.20;;;12.00;98.00;;;;;;5041952;28;21349;-70
2021/12/28 11:26:19;;;;;;;1.20;1.00;;;12.00;98.00;;;;;;5041299;28;20605;-67
2021/12/28 11:28:54;;;;;;;1.20;1.00;;;12.10;98.00;;;;;;5042199;28;20471;-68
2021/12/28 11:31:23;;;;;;;1.20;1.00;;;12.20;98.00;;;;;;5037409;28;20538;-67
2021/12/28 11:34:01;;;;;;;1.20;1.00;;;12.30;98.00;;;;;;5040087;28;20515;-67
2021/12/28 11:36:32;;;;;;;1.20;1.00;;;12.40;98.00;;;;;;5049897;28;20466;-67
2021/12/28 11:39:01;;;;;;;1.20;1.00;;;12.40;98.00;;;;;;5034227;28;20509;-68
2021/12/28 11:41:28;;;;;;;1.20;1.10;;;12.30;98.00;;;;;;5041189;28;20953;-67
2021/12/28 11:43:56;;;;;;;1.20;1.00;;;12.30;98.00;;;;;;5040787;28;20508;-68
2021/12/28 11:46:26;;;;;;;1.20;1.00;;;12.20;98.00;;;;;;5047095;28;20572;-67
2021/12/28 11:48:53;;;;;;;1.20;1.00;;;12.10;98.00;;;;;;5040703;28;20539;-68
2021/12/28 11:51:22;;;;;;;1.20;1.10;;;12.10;98.00;;;;;;5046579;28;20550;-68
2021/12/28 11:53:51;;;;;;;1.20;1.00;;;12.20;98.00;;;;;;5034537;28;20458;-67
2021/12/28 11:56:22;;;;;;;1.20;1.00;;;12.20;98.00;;;;;;5047080;28;20927;-68
2021/12/28 11:59:09;;;;;;;1.20;1.00;;;12.20;98.00;;;;;;5032713;28;21053;-68
2021/12/28 12:01:45;;;;;;;1.20;0.90;;;12.40;98.00;;;;;;5033532;28;20453;-67
2021/12/28 12:04:45;;;;;;;1.20;1.00;;;12.50;98.00;;;;;;5024580;28;20502;-68
2021/12/28 12:07:19;;;;;;;1.20;1.00;;;12.60;98.00;;;;;;5044346;28;20594;-68
2021/12/28 12:10:09;;;;;;;1.20;1.00;;;12.60;98.00;;;;;;5040419;28;20460;-68
2021/12/28 12:13:05;;;;;;;1.20;1.00;;;12.50;98.00;;;;;;5028920;28;20483;-67
2021/12/28 12:15:39;;;;;;;1.20;1.00;;;12.50;98.00;;;;;;5036353;28;20483;-67
2021/12/28 12:18:11;;;;;;;1.20;1.00;;;12.40;98.00;;;;;;5047575;28;20969;-68
2021/12/28 12:20:38;;;;;;;1.20;1.00;;;12.40;98.00;;;;;;5051669;28;20466;-68
2021/12/28 12:23:24;;;;;;;1.20;1.00;;;12.40;98.00;;;;;;5053334;28;20488;-67
2021/12/28 12:26:08;;;;;;;1.20;1.00;;;12.40;98.00;;;;;;5052885;28;20556;-67
2021/12/28 12:28:54;;;;;;;1.20;1.00;;;12.30;98.00;;;;;;5053115;28;20465;-66
2021/12/28 12:31:28;;;;;;;1.20;1.00;;;12.30;98.00;;;;;;5052089;28;20512;-67
2021/12/28 12:33:56;;;;;;;1.20;1.00;;;12.20;98.00;;;;;;5051664;28;20825;-67
2021/12/28 12:36:30;;;;;;;1.20;1.00;;;12.20;98.00;;;;;;5051360;28;20464;-67
2021/12/28 12:38:57;;;;;;;1.20;0.93;;;12.10;98.00;;;;;;5052471;28;20470;-68
2021/12/28 12:41:42;;;;;;;1.17;1.00;;;12.00;98.00;;;;;;5051587;28;20458;-67
2021/12/28 12:44:12;;;;;;;1.10;0.90;;;12.00;98.00;;;;;;5052545;28;20499;-68
2021/12/28 12:46:42;;;;;;;1.10;0.90;;;12.00;98.00;;;;;;5052214;28;20538;-67
2021/12/28 12:49:12;;;;;;;1.20;1.00;;;11.90;98.00;;;;;;5052306;28;20486;-69
2021/12/28 12:51:46;;;;;;;1.20;1.00;;;11.90;98.00;;;;;;5052094;28;20494;-68
2021/12/28 12:54:22;;;;;;;1.10;1.00;;;11.90;98.00;;;;;;5052098;28;20501;-67
2021/12/28 12:57:07;;;;;;;1.20;1.00;;;11.90;98.00;;;;;;5052064;28;20468;-68
2021/12/28 12:59:43;;;;;;;1.17;1.00;;;11.90;98.00;;;;;;5052238;28;20512;-67
2021/12/28 13:02:12;;;;;;;1.20;1.00;;;11.90;98.00;;;;;;5052071;28;20461;-68
2021/12/28 13:04:49;;;;;;;1.20;1.00;;;12.00;98.00;;;;;;5052081;28;20459;-67
2021/12/28 13:07:18;;;;;;;1.13;1.00;;;12.00;98.00;;;;;;5036175;28;20464;-67